Churchill Airport
CYYQ : now visible

Airfield :











YOU CAN JOIN US ON...

 
LOGIN :

Register | Disclaimer

   EN    FR    IT 

 









Legend :    VFR   Marginal VFR   IFR   Intensive IFR   Very Intensive IFR
Visi :
Ceiling :
>= 8 km
>= 3000ft
5 to 8 km
1000 to 3000 ft
1500m to 5 km
500 to 1000 ft
800 to 1500m
200 to 500 ft
< 800m
< 200 ft
Symbols :   Thunderstorms  Fog  Heavy snow  Heavy precipitations  Wind > 20 kt






- Airport Elevation : 94 ft
- IATA code : YYQ


CYYQ - Churchill

CURRENT METAR :
  • 080800Z 31018G23KT 1SM R33/P6000FT/D IC BLSN BKN010 M30/M33 A2986 RMK BLSN4SC2 SLP118

EXPIRED METARs :
  • 080733Z 30019G25KT 1SM R33/P6000FT/U IC BLSN BKN010 M29/M32 A2986 RMK BLSN4SC2 SLP116
  • 080700Z 30019G24KT 3/4SM R33/P6000FT/N IC BLSN BKN010 M30/M33 A2984 RMK BLSN4SC2 SLP112
  • 080600Z 31019G25KT 3/4SM R33/6000FT/N IC BLSN BKN010 M29/M32 A2983 RMK BLSN4SC2 SLP107

TAF AMD TAF CYYQ
Valid from the 08 at 08:00 until the 09 at 06:00 UTC


080828Z 0808/0906 31018G28KT 1SM IC BLSN BKN010
TEMPO 0808/0810 4SM IC BLSN SCT010
FM081000 31018G28KT P6SM IC FEW020
TEMPO 0810/0814 11/2SM IC BLSN
FM081400 30015G25KT P6SM FEW020 SCT060
TEMPO 0814/0818 4SM IC BR RMK NXT FCST BY 081200Z



MET'MAP, your aeronautical weather chart ! - Copyright ORBIFLY December 2007 - Disclaimer

ORBIFLY MET'MAP TEAM :

Programming & Development : Alexandra Zaïnal
Concept & original design : Baudouin d'Aumeries
Assistance for programming : Marc-Olivier Méhu
Technical & hardware support : Manuel Goepfert

Contact : metmap@orbifly.com




SOURCES & CREDITS :

   NOAA       Earth
Advisory